KCKB/CKB METAR and TAF weather

Enter ICAO airport designator
Station Type Date Time Source
KCKB METAR 2020/07/09 07:53 UTC NOAA

KCKB 090753Z AUTO RMK AO2 SLPNO PWINO RVRNO $


Station Type Date Time Source
KCKB Decoded METAR 2020/07/09 07:53 UTC NOAA

HARRISON/MARION REGIONAL, WV, United States (KCKB) 39-18N 080-13W 360M
Jul 09, 2020 - 03:53 AM EDT / 2020.07.09 0753 UTC
ob: KCKB 090753Z AUTO RMK AO2 SLPNO PWINO RVRNO
cycle: 8

Station Type Date Time Source
KCKB TAF 2020/07/09 06:24 UTC NOAA

TAF KCKB 090523Z 0906/1006 00000KT P6SM SKC
FM090800 00000KT 4SM BR FEW250
FM091200 00000KT P6SM FEW250
FM091500 VRB03KT P6SM SCT070
FM100100 00000KT P6SM FEW250
AMD NOT SKED

Example: see airport list